createdAt,value
2023-01-29T00:00:15.633Z,102882.81
2023-01-29T00:02:44.269Z,102881.91
2023-01-29T00:05:27.024Z,102875.03
2023-01-29T00:07:56.715Z,102868.13
2023-01-29T00:10:25.858Z,102874.22
2023-01-29T00:12:54.201Z,102882.09
2023-01-29T00:15:22.946Z,102885.59
2023-01-29T00:17:51.348Z,102895.25
2023-01-29T00:20:21.189Z,102893.66
2023-01-29T00:22:49.632Z,102891.16
2023-01-29T00:25:18.173Z,102894.53
2023-01-29T00:27:46.762Z,102892.03
2023-01-29T00:30:19.571Z,102894.72
2023-01-29T00:32:48.330Z,102891.31
2023-01-29T00:35:16.848Z,102892.19
2023-01-29T00:37:46.933Z,102892.28
2023-01-29T00:40:15.842Z,102881.91
2023-01-29T00:43:03.596Z,102891.47
2023-01-29T00:45:32.044Z,102876.69
2023-01-29T00:48:00.554Z,102865.47
2023-01-29T00:50:29.312Z,102872.50
2023-01-29T00:52:59.565Z,102872.50
2023-01-29T00:55:27.926Z,102870.78
2023-01-29T00:57:56.702Z,102865.69
2023-01-29T01:00:26.045Z,102856.16
2023-01-29T01:03:05.649Z,102860.47
2023-01-29T01:05:34.480Z,102859.59
2023-01-29T01:08:04.354Z,102852.69
2023-01-29T01:10:33.566Z,102850.09
2023-01-29T01:13:03.866Z,102844.06
2023-01-29T01:15:35.523Z,102851.13
2023-01-29T01:18:04.815Z,102846.84
2023-01-29T01:20:36.009Z,102849.63
2023-01-29T01:23:06.409Z,102854.81
2023-01-29T01:25:35.236Z,102857.41
2023-01-29T01:28:03.704Z,102855.81
2023-01-29T01:30:33.159Z,102861.88
2023-01-29T01:33:01.639Z,102860.19
2023-01-29T01:35:30.395Z,102866.34
2023-01-29T01:37:58.689Z,102856.88
2023-01-29T01:40:28.882Z,102857.78
2023-01-29T01:43:01.570Z,102857.78
2023-01-29T01:45:31.995Z,102859.66
2023-01-29T01:48:05.927Z,102865.72
2023-01-29T01:50:41.805Z,102866.56
2023-01-29T01:53:13.459Z,102865.72
2023-01-29T01:55:48.813Z,102864.75
2023-01-29T01:58:24.268Z,102867.34
2023-01-29T02:00:53.449Z,102869.94
2023-01-29T02:03:41.936Z,102879.56
2023-01-29T02:06:29.703Z,102871.75
2023-01-29T02:09:24.266Z,102876.94
2023-01-29T02:11:54.149Z,102878.72
2023-01-29T02:14:23.309Z,102870.13
2023-01-29T02:16:51.753Z,102881.31
2023-01-29T02:19:44.813Z,102866.56
2023-01-29T02:23:02.617Z,102879.63
2023-01-29T02:25:55.162Z,102868.31
2023-01-29T02:28:45.522Z,102866.56
2023-01-29T02:31:27.048Z,102867.44
2023-01-29T02:34:08.659Z,102865.72
2023-01-29T02:36:46.955Z,102857.94
2023-01-29T02:39:25.515Z,102857.94
2023-01-29T02:42:01.575Z,102856.22
2023-01-29T02:44:39.757Z,102838.03
2023-01-29T02:47:17.093Z,102849.41
2023-01-29T02:49:51.310Z,102835.50
2023-01-29T02:52:23.129Z,102837.28
2023-01-29T02:54:57.231Z,102820.81
2023-01-29T02:57:30.645Z,102819.91
2023-01-29T03:00:07.047Z,102814.63
2023-01-29T03:02:41.957Z,102803.25
2023-01-29T03:05:18.798Z,102786.75
2023-01-29T03:07:53.886Z,102783.28
2023-01-29T03:10:28.033Z,102778.91
2023-01-29T03:13:01.363Z,102763.22
2023-01-29T03:15:42.463Z,102762.22
2023-01-29T03:18:15.227Z,102758.75
2023-01-29T03:20:49.241Z,102751.69
2023-01-29T03:23:27.291Z,102758.50
2023-01-29T03:26:18.228Z,102749.72
2023-01-29T03:29:05.660Z,102741.81
2023-01-29T03:31:53.457Z,102744.50
2023-01-29T03:34:28.556Z,102733.22
2023-01-29T03:36:59.839Z,102731.53
2023-01-29T03:39:29.968Z,102729.91
2023-01-29T03:42:06.673Z,102737.69
2023-01-29T03:44:44.389Z,102736.78
2023-01-29T03:47:21.178Z,102737.75
2023-01-29T03:50:00.196Z,102735.25
2023-01-29T03:52:38.779Z,102737.94
2023-01-29T03:55:16.907Z,102741.44
2023-01-29T03:57:55.372Z,102735.34
2023-01-29T04:00:29.542Z,102741.44
2023-01-29T04:03:08.132Z,102738.09
2023-01-29T04:05:44.805Z,102734.78
2023-01-29T04:08:19.962Z,102735.75
2023-01-29T04:10:50.623Z,102737.63
2023-01-29T04:13:20.148Z,102738.50
2023-01-29T04:15:55.634Z,102746.41
2023-01-29T04:18:26.181Z,102745.66
2023-01-29T04:20:54.891Z,102753.66
2023-01-29T04:23:26.132Z,102751.19
2023-01-29T04:26:08.338Z,102751.19
2023-01-29T04:28:55.362Z,102744.38
2023-01-29T04:31:28.927Z,102747.97
2023-01-29T04:34:14.401Z,102748.94
2023-01-29T04:36:55.427Z,102753.31
2023-01-29T04:39:28.680Z,102742.13
2023-01-29T04:42:08.958Z,102740.41
2023-01-29T04:44:45.817Z,102739.56
2023-01-29T04:47:23.365Z,102757.00
2023-01-29T04:50:04.715Z,102767.28
2023-01-29T04:52:39.974Z,102773.38
2023-01-29T04:55:16.073Z,102773.38
2023-01-29T04:57:51.030Z,102769.91
2023-01-29T05:00:24.020Z,102769.09
2023-01-29T05:02:53.684Z,102763.91
2023-01-29T05:05:23.785Z,102753.31
2023-01-29T05:07:52.381Z,102749.72
2023-01-29T05:10:22.809Z,102732.16
2023-01-29T05:12:58.072Z,102724.06
2023-01-29T05:15:35.079Z,102710.59
2023-01-29T05:18:04.390Z,102710.09
2023-01-29T05:20:36.384Z,102714.94
2023-01-29T05:23:04.957Z,102710.28
2023-01-29T05:25:35.312Z,102700.47
2023-01-29T05:28:05.898Z,102700.47
2023-01-29T05:30:36.780Z,102716.06
2023-01-29T05:33:10.832Z,102714.34
2023-01-29T05:35:40.658Z,102722.06
2023-01-29T05:38:11.895Z,102704.69
2023-01-29T05:40:40.368Z,102697.72
2023-01-29T05:43:17.602Z,102688.28
2023-01-29T05:45:53.570Z,102676.09
2023-01-29T05:48:22.013Z,102659.69
2023-01-29T05:50:52.334Z,102682.28
2023-01-29T05:53:21.517Z,102670.19
2023-01-29T05:55:50.446Z,102662.47
2023-01-29T05:58:19.795Z,102665.06
2023-01-29T06:00:48.215Z,102658.16
2023-01-29T06:03:17.065Z,102652.97
2023-01-29T06:05:45.415Z,102663.53
2023-01-29T06:08:15.295Z,102652.38
2023-01-29T06:10:43.576Z,102646.50
2023-01-29T06:13:12.014Z,102645.75
2023-01-29T06:15:42.582Z,102653.69
2023-01-29T06:18:10.950Z,102655.50
2023-01-29T06:20:39.702Z,102646.97
2023-01-29T06:23:08.089Z,102647.88
2023-01-29T06:25:37.847Z,102642.75
2023-01-29T06:28:07.055Z,102644.44
2023-01-29T06:30:35.724Z,102641.03
2023-01-29T06:33:04.231Z,102649.81
2023-01-29T06:35:32.668Z,102642.03
2023-01-29T06:38:01.069Z,102632.59
2023-01-29T06:40:29.433Z,102616.16
2023-01-29T06:43:01.412Z,102612.69
2023-01-29T06:45:29.872Z,102632.66
2023-01-29T06:48:00.515Z,102642.16
2023-01-29T06:50:29.743Z,102643.28
2023-01-29T06:52:58.164Z,102642.50
2023-01-29T06:55:26.738Z,102652.16
2023-01-29T06:57:55.044Z,102654.84
2023-01-29T07:00:25.104Z,102650.63
2023-01-29T07:02:53.522Z,102650.63
2023-01-29T07:05:21.906Z,102654.16
2023-01-29T07:07:50.287Z,102637.78
2023-01-29T07:10:19.071Z,102625.66
2023-01-29T07:12:47.620Z,102618.69
2023-01-29T07:15:19.663Z,102619.56
2023-01-29T07:18:00.107Z,102608.19
2023-01-29T07:20:30.567Z,102614.28
2023-01-29T07:22:59.603Z,102608.19
2023-01-29T07:25:28.026Z,102613.41
2023-01-29T07:27:56.310Z,102609.03
2023-01-29T07:30:24.641Z,102608.09
2023-01-29T07:32:53.196Z,102612.41
2023-01-29T07:35:23.291Z,102608.06
2023-01-29T07:37:51.660Z,102602.75
2023-01-29T07:40:20.607Z,102615.84
2023-01-29T07:42:48.953Z,102612.41
2023-01-29T07:45:17.484Z,102603.81
2023-01-29T07:47:46.009Z,102597.78
2023-01-29T07:50:14.488Z,102595.19
2023-01-29T07:52:44.373Z,102578.78
2023-01-29T07:55:12.760Z,102581.97
2023-01-29T07:57:41.138Z,102587.03
2023-01-29T08:00:12.568Z,102585.22
2023-01-29T08:02:41.205Z,102594.81
2023-01-29T08:05:10.597Z,102589.53
2023-01-29T08:07:38.881Z,102586.78
2023-01-29T08:10:11.067Z,102590.19
2023-01-29T08:12:39.363Z,102586.78
2023-01-29T08:15:08.913Z,102586.28
2023-01-29T08:20:27.966Z,102593.06
2023-01-29T08:23:02.219Z,102580.28
2023-01-29T08:25:32.262Z,102580.44
2023-01-29T08:28:01.676Z,102575.22
2023-01-29T08:30:33.678Z,102577.13
2023-01-29T08:33:02.622Z,102575.50
2023-01-29T08:35:30.968Z,102578.16
2023-01-29T08:38:01.659Z,102578.16
2023-01-29T08:40:33.263Z,102582.63
2023-01-29T08:43:03.466Z,102574.84
2023-01-29T08:45:35.110Z,102575.81
2023-01-29T08:48:03.728Z,102564.59
2023-01-29T08:50:32.972Z,102571.22
2023-01-29T08:53:03.215Z,102565.09
2023-01-29T08:55:32.984Z,102568.63
2023-01-29T08:58:01.328Z,102571.44
2023-01-29T09:00:29.717Z,102567.34
2023-01-29T09:02:59.728Z,102558.97
2023-01-29T09:05:28.808Z,102555.63
2023-01-29T09:07:58.941Z,102547.00
2023-01-29T09:10:27.754Z,102549.66
2023-01-29T09:12:57.562Z,102548.03
2023-01-29T09:15:26.199Z,102547.28
2023-01-29T09:17:55.008Z,102541.91
2023-01-29T09:20:23.761Z,102541.91
2023-01-29T09:22:53.684Z,102540.28
2023-01-29T09:25:22.186Z,102537.84
2023-01-29T09:27:50.759Z,102542.41
2023-01-29T09:30:21.005Z,102544.31
2023-01-29T09:32:53.511Z,102539.41
2023-01-29T09:35:22.668Z,102541.41
2023-01-29T09:37:51.363Z,102544.28
2023-01-29T09:40:28.081Z,102544.59
2023-01-29T09:43:02.581Z,102551.72
2023-01-29T09:45:32.566Z,102531.78
2023-01-29T09:48:05.758Z,102543.69
2023-01-29T09:50:40.840Z,102539.25
2023-01-29T09:53:19.628Z,102524.63
2023-01-29T09:55:54.348Z,102535.34
2023-01-29T09:58:28.889Z,102537.28
2023-01-29T10:01:11.330Z,102529.69
2023-01-29T10:04:13.282Z,102538.25
2023-01-29T10:06:56.393Z,102529.47
2023-01-29T10:10:11.561Z,102529.25
2023-01-29T10:13:03.292Z,102521.28
2023-01-29T10:16:09.687Z,102517.97
2023-01-29T10:19:31.630Z,102519.84
2023-01-29T10:22:47.271Z,102509.44
2023-01-29T10:25:20.552Z,102502.88
2023-01-29T10:27:53.220Z,102508.63
2023-01-29T10:30:35.248Z,102512.28
2023-01-29T10:33:06.793Z,102506.25
2023-01-29T10:35:43.510Z,102500.16
2023-01-29T10:38:28.968Z,102495.78
2023-01-29T10:41:12.462Z,102488.72
2023-01-29T10:43:56.452Z,102489.31
2023-01-29T10:46:45.325Z,102486.44
2023-01-29T10:49:30.287Z,102486.22
2023-01-29T10:52:15.637Z,102474.38
2023-01-29T10:55:01.993Z,102459.31
2023-01-29T10:57:50.059Z,102467.03
2023-01-29T11:00:24.073Z,102455.66
2023-01-29T11:02:54.112Z,102458.84
2023-01-29T11:05:30.985Z,102440.38
2023-01-29T11:08:10.084Z,102436.84
2023-01-29T11:10:43.583Z,102432.03
2023-01-29T11:13:16.398Z,102423.66
2023-01-29T11:15:45.165Z,102414.13
2023-01-29T11:18:15.916Z,102416.81
2023-01-29T11:20:47.180Z,102414.41
2023-01-29T11:23:29.462Z,102411.22
2023-01-29T11:26:00.126Z,102403.25
2023-01-29T11:28:40.788Z,102405.56
2023-01-29T11:31:23.263Z,102397.63
2023-01-29T11:33:55.687Z,102396.75
2023-01-29T11:36:34.100Z,102391.63
2023-01-29T11:39:21.540Z,102389.81
2023-01-29T11:41:56.307Z,102388.06
2023-01-29T11:44:32.246Z,102374.88
2023-01-29T11:47:13.892Z,102369.69
2023-01-29T11:49:49.649Z,102366.47
2023-01-29T11:52:21.182Z,102365.84
2023-01-29T11:54:55.478Z,102366.69
2023-01-29T11:57:30.070Z,102356.25
2023-01-29T12:00:02.777Z,102356.31
2023-01-29T12:02:37.749Z,102356.38
2023-01-29T12:05:16.355Z,102358.88
2023-01-29T12:07:47.255Z,102346.59
2023-01-29T12:10:34.142Z,102344.69
2023-01-29T12:13:08.485Z,102334.34
2023-01-29T12:15:39.386Z,102335.28
2023-01-29T12:18:20.525Z,102329.28
2023-01-29T12:20:56.433Z,102326.78
2023-01-29T12:23:36.568Z,102324.25
2023-01-29T12:26:10.816Z,102320.09
2023-01-29T12:28:49.526Z,102320.22
2023-01-29T12:31:30.789Z,102311.72
2023-01-29T12:34:07.841Z,102301.41
2023-01-29T12:36:43.126Z,102297.16
2023-01-29T12:39:16.419Z,102286.94
2023-01-29T12:41:52.524Z,102275.66
2023-01-29T12:44:25.239Z,102279.81
2023-01-29T12:46:58.027Z,102272.84
2023-01-29T12:49:30.666Z,102268.41
2023-01-29T12:52:09.578Z,102256.19
2023-01-29T12:54:43.974Z,102250.00
2023-01-29T12:57:24.666Z,102250.00
2023-01-29T12:59:59.334Z,102231.81
2023-01-29T13:02:36.830Z,102226.94
2023-01-29T13:05:20.956Z,102233.97
2023-01-29T13:07:54.656Z,102220.31
2023-01-29T13:10:27.680Z,102218.84
2023-01-29T13:13:03.189Z,102215.41
2023-01-29T13:15:36.730Z,102213.88
2023-01-29T13:18:48.711Z,102191.06
2023-01-29T13:21:21.461Z,102196.75
2023-01-29T13:23:53.657Z,102188.59
2023-01-29T13:26:23.580Z,102186.97
2023-01-29T13:28:53.949Z,102179.31
2023-01-29T13:31:31.705Z,102178.63
2023-01-29T13:34:14.135Z,102171.84
2023-01-29T13:36:46.312Z,102170.22
2023-01-29T13:39:25.662Z,102165.94
2023-01-29T13:41:55.413Z,102165.03
2023-01-29T13:44:28.431Z,102153.63
2023-01-29T13:47:00.478Z,102162.31
2023-01-29T13:49:36.938Z,102151.81
2023-01-29T13:52:27.558Z,102152.47
2023-01-29T13:55:00.496Z,102144.75
2023-01-29T13:57:55.797Z,102145.19
2023-01-29T14:01:01.825Z,102154.56
2023-01-29T14:04:10.385Z,102143.28
2023-01-29T14:06:49.721Z,102138.94
2023-01-29T14:10:03.568Z,102133.56
2023-01-29T14:12:46.644Z,102130.59
2023-01-29T14:15:30.883Z,102117.03
2023-01-29T14:18:20.180Z,102108.84
2023-01-29T14:21:21.814Z,102114.81
2023-01-29T14:23:52.442Z,102109.78
2023-01-29T14:26:27.526Z,102109.78
2023-01-29T14:29:03.339Z,102107.78
2023-01-29T14:31:44.132Z,102099.72
2023-01-29T14:34:26.789Z,102106.25
2023-01-29T14:36:58.500Z,102093.94
2023-01-29T14:39:39.538Z,102092.09
2023-01-29T14:42:22.241Z,102096.34
2023-01-29T14:45:00.862Z,102084.22
2023-01-29T14:48:09.323Z,102079.84
2023-01-29T14:50:57.544Z,102073.78
2023-01-29T14:53:41.338Z,102076.41
2023-01-29T14:56:16.301Z,102079.09
2023-01-29T14:58:49.398Z,102067.66
2023-01-29T15:01:25.230Z,102071.94
2023-01-29T15:04:01.403Z,102072.72
2023-01-29T15:06:42.156Z,102069.03
2023-01-29T15:09:16.438Z,102068.09
2023-01-29T15:11:54.943Z,102068.88
2023-01-29T15:14:31.293Z,102067.94
2023-01-29T15:17:23.979Z,102072.13
2023-01-29T15:19:52.955Z,102069.38
2023-01-29T15:22:26.021Z,102069.25
2023-01-29T15:25:07.761Z,102080.44
2023-01-29T15:27:36.329Z,102062.91
2023-01-29T15:30:09.290Z,102052.41
2023-01-29T15:32:40.853Z,102052.41
2023-01-29T15:35:15.935Z,102044.53
2023-01-29T15:37:59.768Z,102034.13
2023-01-29T15:40:29.249Z,102030.56
2023-01-29T15:42:57.637Z,102032.38
2023-01-29T15:45:33.859Z,102033.25
2023-01-29T15:48:06.910Z,102022.00
2023-01-29T15:50:41.884Z,102022.84
2023-01-29T15:53:19.348Z,102016.78
2023-01-29T15:55:49.020Z,102026.25
2023-01-29T15:58:20.468Z,102027.16
2023-01-29T16:00:55.350Z,102034.97
2023-01-29T16:03:25.930Z,102031.59
2023-01-29T16:05:56.007Z,102038.56
2023-01-29T16:08:27.605Z,102030.75
2023-01-29T16:10:59.617Z,102031.59
2023-01-29T16:13:31.133Z,102026.25
2023-01-29T16:16:03.266Z,102026.25
2023-01-29T16:18:36.205Z,102015.75
2023-01-29T16:21:09.055Z,102027.84
2023-01-29T16:23:44.394Z,102014.84
2023-01-29T16:26:18.693Z,102011.41
2023-01-29T16:28:48.937Z,102007.13
2023-01-29T16:31:29.515Z,101992.22
2023-01-29T16:34:00.325Z,102003.69
2023-01-29T16:36:30.747Z,101995.03
2023-01-29T16:39:05.403Z,101981.16
2023-01-29T16:41:36.404Z,101984.63
2023-01-29T16:44:29.230Z,101991.53
2023-01-29T16:46:57.533Z,101987.25
2023-01-29T16:49:54.437Z,101976.88
2023-01-29T16:52:27.711Z,101969.91
2023-01-29T16:55:16.177Z,101962.13
2023-01-29T16:57:55.004Z,101960.22
2023-01-29T17:00:28.128Z,101960.22
2023-01-29T17:03:02.374Z,101957.59
2023-01-29T17:05:33.517Z,101949.81
2023-01-29T17:08:02.097Z,101942.00
2023-01-29T17:10:32.809Z,101941.22
2023-01-29T17:13:05.936Z,101929.97
2023-01-29T17:15:38.689Z,101930.81
2023-01-29T17:18:19.395Z,101921.19
2023-01-29T17:20:47.875Z,101915.97
2023-01-29T17:23:16.447Z,101906.47
2023-01-29T17:25:47.260Z,101920.34
2023-01-29T17:28:17.911Z,101925.47
2023-01-29T17:31:00.210Z,101915.06
2023-01-29T17:33:34.017Z,101907.28
2023-01-29T17:36:02.481Z,101908.22
2023-01-29T17:38:30.813Z,101900.50
2023-01-29T17:41:05.372Z,101907.47
2023-01-29T17:43:33.988Z,101889.44
2023-01-29T17:46:02.434Z,101892.19
2023-01-29T17:48:32.345Z,101877.59
2023-01-29T17:51:07.269Z,101884.75
2023-01-29T17:53:45.224Z,101866.75
2023-01-29T17:56:21.363Z,101852.13
2023-01-29T17:58:49.744Z,101841.78
2023-01-29T18:01:18.141Z,101860.09
2023-01-29T18:03:46.564Z,101866.25
2023-01-29T18:06:26.185Z,101867.28
2023-01-29T18:08:54.481Z,101849.19
2023-01-29T18:11:24.671Z,101846.66
2023-01-29T18:13:53.274Z,101830.28
2023-01-29T18:16:22.407Z,101832.19
2023-01-29T18:18:51.345Z,101829.66
2023-01-29T18:21:19.904Z,101823.69
2023-01-29T18:23:48.231Z,101795.06
2023-01-29T18:26:18.096Z,101784.66
2023-01-29T18:28:47.885Z,101792.47
2023-01-29T18:31:16.751Z,101794.22
2023-01-29T18:33:45.432Z,101803.81
2023-01-29T18:36:13.804Z,101795.09
2023-01-29T18:38:42.164Z,101789.00
2023-01-29T18:41:12.326Z,101786.38
2023-01-29T18:43:43.124Z,101786.31
2023-01-29T18:46:13.038Z,101782.06
2023-01-29T18:48:42.775Z,101786.41
2023-01-29T18:51:11.414Z,101782.16
2023-01-29T18:53:39.800Z,101786.56
2023-01-29T18:56:09.311Z,101775.41
2023-01-29T18:58:38.081Z,101771.97
2023-01-29T19:01:12.140Z,101779.84
2023-01-29T19:03:41.987Z,101773.75
2023-01-29T19:06:13.059Z,101756.47
2023-01-29T19:08:43.034Z,101744.34
2023-01-29T19:11:12.628Z,101751.34
2023-01-29T19:13:42.927Z,101742.69
2023-01-29T19:16:13.585Z,101751.44
2023-01-29T19:18:42.271Z,101737.53
2023-01-29T19:21:13.441Z,101728.88
2023-01-29T19:23:43.095Z,101723.69
2023-01-29T19:26:13.534Z,101732.44
2023-01-29T19:28:42.283Z,101733.38
2023-01-29T19:31:12.421Z,101723.03
2023-01-29T19:33:41.578Z,101720.50
2023-01-29T19:36:12.040Z,101697.06
2023-01-29T19:38:40.363Z,101704.91
2023-01-29T19:41:08.769Z,101710.19
2023-01-29T19:43:38.252Z,101699.81
2023-01-29T19:46:07.431Z,101710.28
2023-01-29T19:48:37.560Z,101697.31
2023-01-29T19:51:10.057Z,101724.28
2023-01-29T19:53:40.328Z,101719.94
2023-01-29T19:56:12.285Z,101709.59
2023-01-29T19:58:41.293Z,101723.56
2023-01-29T20:01:16.109Z,101707.16
2023-01-29T20:03:47.738Z,101689.81
2023-01-29T20:06:18.911Z,101663.84
2023-01-29T20:08:47.694Z,101674.25
2023-01-29T20:11:17.503Z,101682.06
2023-01-29T20:13:49.735Z,101693.41
2023-01-29T20:16:19.757Z,101683.00
2023-01-29T20:18:49.859Z,101693.50
2023-01-29T20:21:22.029Z,101684.88
2023-01-29T20:23:51.773Z,101675.34
2023-01-29T20:26:20.660Z,101665.81
2023-01-29T20:28:49.896Z,101680.56
2023-01-29T20:31:18.705Z,101672.75
2023-01-29T20:33:48.464Z,101675.38
2023-01-29T20:36:16.838Z,101683.19
2023-01-29T20:38:45.238Z,101674.63
2023-01-29T20:41:16.847Z,101667.69
2023-01-29T20:43:46.204Z,101668.56
2023-01-29T20:46:14.751Z,101663.28
2023-01-29T20:48:43.485Z,101669.34
2023-01-29T20:51:15.768Z,101667.56
2023-01-29T20:53:46.389Z,101664.97
2023-01-29T20:56:16.690Z,101667.56
2023-01-29T20:58:46.669Z,101650.19
2023-01-29T21:01:19.352Z,101658.00
2023-01-29T21:03:48.808Z,101670.22
2023-01-29T21:06:18.650Z,101665.91
2023-01-29T21:08:47.081Z,101658.09
2023-01-29T21:11:15.470Z,101652.06
2023-01-29T21:13:44.077Z,101639.94
2023-01-29T21:16:13.085Z,101638.31
2023-01-29T21:18:41.649Z,101632.31
2023-01-29T21:21:10.014Z,101630.66
2023-01-29T21:23:39.700Z,101634.00
2023-01-29T21:26:09.047Z,101636.63
2023-01-29T21:28:37.469Z,101633.09
2023-01-29T21:31:07.551Z,101600.09
2023-01-29T21:33:36.089Z,101582.75
2023-01-29T21:36:05.752Z,101573.22
2023-01-29T21:38:34.385Z,101541.94
2023-01-29T21:41:07.134Z,101536.78
2023-01-29T21:43:34.571Z,101540.28
2023-01-29T21:46:11.580Z,101525.53
2023-01-29T21:48:41.147Z,101535.06
2023-01-29T21:51:10.483Z,101540.34
2023-01-29T21:53:38.993Z,101515.19
2023-01-29T21:56:09.368Z,101516.97
2023-01-29T21:58:37.802Z,101515.28
2023-01-29T22:01:35.597Z,101498.00
2023-01-29T22:03:55.754Z,101496.31
2023-01-29T22:06:24.370Z,101508.50
2023-01-29T22:08:53.044Z,101492.94
2023-01-29T22:11:22.904Z,101502.59
2023-01-29T22:13:51.267Z,101489.59
2023-01-29T22:16:19.653Z,101472.28
2023-01-29T22:18:50.364Z,101475.81
2023-01-29T22:21:18.909Z,101479.31
2023-01-29T22:23:49.747Z,101476.75
2023-01-29T22:26:18.923Z,101464.66
2023-01-29T22:28:48.868Z,101477.75
2023-01-29T22:31:17.143Z,101450.88
2023-01-29T22:33:45.549Z,101459.63
2023-01-29T22:36:15.403Z,101440.53
2023-01-29T22:38:44.674Z,101431.88
2023-01-29T22:41:14.753Z,101411.97
2023-01-29T22:43:44.430Z,101405.06
2023-01-29T22:46:14.219Z,101395.56
2023-01-29T22:48:42.786Z,101406.09
2023-01-29T22:51:12.064Z,101407.00
2023-01-29T22:53:42.335Z,101404.38
2023-01-29T22:56:12.068Z,101415.72
2023-01-29T22:58:41.195Z,101426.25
2023-01-29T23:01:09.906Z,101444.50
2023-01-29T23:03:39.713Z,101446.38
2023-01-29T23:06:08.340Z,101454.22
2023-01-29T23:08:36.775Z,101447.34
2023-01-29T23:11:15.034Z,101440.44
2023-01-29T23:13:44.831Z,101449.19
2023-01-29T23:16:14.217Z,101441.50
2023-01-29T23:18:44.829Z,101422.44
2023-01-29T23:21:13.513Z,101420.81
2023-01-29T23:23:44.667Z,101409.63
2023-01-29T23:26:32.638Z,101410.63
2023-01-29T23:29:01.595Z,101405.44
2023-01-29T23:31:29.945Z,101404.69
2023-01-29T23:34:00.887Z,101403.09
2023-01-29T23:36:29.385Z,101394.47
2023-01-29T23:38:57.708Z,101389.38
2023-01-29T23:41:26.121Z,101386.81
2023-01-29T23:43:54.515Z,101377.25
2023-01-29T23:46:22.952Z,101386.00
2023-01-29T23:48:51.383Z,101383.44
2023-01-29T23:51:21.105Z,101383.50
2023-01-29T23:53:49.425Z,101349.59
2023-01-29T23:56:17.762Z,101357.47
2023-01-29T23:58:46.339Z,101347.94
